Time;durP1;ratioP1;P1;durP2;ratioP2;P2;SDS_P1;SDS_P2;PMS_P1;PMS_P2;Temp;Humidity;BMP_temperature;BMP_pressure;BME280_temperature;BME280_humidity;BME280_pressure;Samples;Min_cycle;Max_cycle;Signal;HPM_P1;HPM_P2
2023/03/04 00:02:09;;;;;;;0.75;0.30;;;15.90;61.80;;;;;;4995376;28;20401;-67
2023/03/04 00:04:35;;;;;;;1.13;0.47;;;15.90;61.70;;;;;;4994199;28;20497;-67
2023/03/04 00:07:00;;;;;;;0.40;0.40;;;15.90;61.70;;;;;;4995531;28;20029;-67
2023/03/04 00:09:26;;;;;;;0.30;0.30;;;15.90;61.70;;;;;;4994263;28;20027;-67
2023/03/04 00:11:51;;;;;;;0.52;0.30;;;15.90;61.70;;;;;;4993925;28;20035;-67
2023/03/04 00:14:17;;;;;;;0.63;0.30;;;15.90;61.70;;;;;;4995403;28;20022;-67
2023/03/04 00:16:43;;;;;;;0.30;0.30;;;15.90;61.70;;;;;;4993888;28;20034;-67
2023/03/04 00:19:09;;;;;;;0.30;0.30;;;15.90;61.70;;;;;;4995210;28;20022;-67
2023/03/04 00:21:35;;;;;;;0.25;0.20;;;15.90;61.80;;;;;;4993767;28;20050;-67
2023/03/04 00:24:00;;;;;;;0.20;0.20;;;15.90;61.80;;;;;;4995126;28;20048;-67
2023/03/04 00:26:26;;;;;;;0.30;0.22;;;15.90;61.80;;;;;;4995172;28;20536;-67
2023/03/04 00:28:52;;;;;;;0.43;0.40;;;15.90;61.80;;;;;;4993960;28;20504;-67
2023/03/04 00:31:17;;;;;;;0.60;0.30;;;15.90;61.80;;;;;;4994918;28;20061;-67
2023/03/04 00:33:43;;;;;;;0.40;0.30;;;15.90;61.70;;;;;;4993832;28;20053;-67
2023/03/04 00:36:09;;;;;;;0.68;0.40;;;15.90;61.80;;;;;;4993866;28;20441;-67
2023/03/04 00:38:35;;;;;;;0.60;0.30;;;15.90;61.70;;;;;;4993596;28;20026;-67
2023/03/04 00:41:00;;;;;;;0.50;0.30;;;15.90;61.70;;;;;;4993811;28;20105;-67
2023/03/04 00:43:26;;;;;;;0.20;0.20;;;15.90;61.70;;;;;;4994633;28;20026;-67
2023/03/04 00:45:52;;;;;;;0.47;0.40;;;15.90;61.80;;;;;;4993651;28;20026;-67
2023/03/04 00:48:17;;;;;;;0.88;0.30;;;15.90;61.80;;;;;;4994799;28;20382;-67
2023/03/04 00:50:43;;;;;;;0.30;0.28;;;15.90;61.70;;;;;;4994487;28;20034;-67
2023/03/04 00:53:09;;;;;;;0.40;0.30;;;15.90;61.80;;;;;;4994581;28;20465;-67
2023/03/04 00:55:35;;;;;;;0.80;0.30;;;15.90;61.70;;;;;;4994564;28;20034;-67
2023/03/04 00:58:01;;;;;;;0.35;0.25;;;15.90;61.70;;;;;;4995085;28;20027;-67
2023/03/04 01:00:26;;;;;;;0.38;0.20;;;15.90;61.70;;;;;;4994186;28;20031;-67
2023/03/04 01:02:52;;;;;;;0.47;0.28;;;15.90;61.70;;;;;;4994314;28;20052;-67
2023/03/04 01:05:18;;;;;;;0.20;0.20;;;15.90;61.70;;;;;;4993195;28;20477;-67
2023/03/04 01:07:43;;;;;;;0.20;0.17;;;15.90;61.70;;;;;;4993152;28;20023;-67
2023/03/04 01:10:11;;;;;;;0.47;0.28;;;15.90;62.70;;;;;;4994220;28;20444;-67
2023/03/04 01:12:36;;;;;;;0.35;0.20;;;15.90;61.70;;;;;;4992925;28;20102;-66
2023/03/04 01:15:03;;;;;;;0.30;0.30;;;15.90;61.70;;;;;;4993972;28;20105;-67
2023/03/04 01:17:28;;;;;;;0.52;0.30;;;15.90;61.70;;;;;;4992963;28;20030;-67
2023/03/04 01:19:54;;;;;;;0.30;0.30;;;15.90;61.70;;;;;;4993964;28;20488;-67
2023/03/04 01:22:19;;;;;;;0.22;0.20;;;15.90;61.70;;;;;;4994014;28;20061;-67
2023/03/04 01:24:45;;;;;;;0.40;0.20;;;15.90;61.70;;;;;;4992700;28;20035;-67
2023/03/04 01:27:11;;;;;;;0.47;0.30;;;15.90;61.70;;;;;;4994134;28;20026;-67
2023/03/04 01:29:36;;;;;;;0.57;0.30;;;15.90;61.70;;;;;;4976402;28;20023;-67
2023/03/04 01:32:02;;;;;;;0.10;0.10;;;15.90;61.70;;;;;;4992640;28;20026;-67
2023/03/04 01:34:28;;;;;;;0.10;0.10;;;15.90;61.70;;;;;;4992833;28;20113;-67
2023/03/04 01:36:53;;;;;;;0.98;0.30;;;15.90;61.70;;;;;;4993809;28;20088;-67
2023/03/04 01:39:19;;;;;;;0.25;0.25;;;15.90;61.70;;;;;;4992543;28;20042;-67
2023/03/04 01:41:45;;;;;;;0.50;0.22;;;15.90;61.70;;;;;;4992717;28;20018;-67
2023/03/04 01:44:10;;;;;;;0.30;0.20;;;15.90;61.70;;;;;;4992206;28;20533;-67
2023/03/04 01:46:36;;;;;;;0.20;0.20;;;15.90;61.70;;;;;;4992478;28;20551;-67
2023/03/04 01:49:02;;;;;;;0.20;0.20;;;15.90;61.70;;;;;;4992402;28;20037;-67
2023/03/04 01:51:28;;;;;;;0.50;0.30;;;15.90;61.70;;;;;;4992292;28;20022;-67
2023/03/04 01:53:53;;;;;;;0.40;0.30;;;15.90;61.60;;;;;;4992369;28;20037;-67
2023/03/04 01:56:30;;;;;;;0.40;0.25;;;15.90;61.70;;;;;;4993518;28;20030;-67
2023/03/04 01:59:25;;;;;;;0.20;0.20;;;15.90;61.70;;;;;;4991914;28;20464;-67
2023/03/04 02:02:00;;;;;;;0.13;0.13;;;15.90;61.60;;;;;;5024940;28;20056;-67
2023/03/04 02:04:30;;;;;;;0.20;0.17;;;15.90;61.70;;;;;;4992206;28;20098;-67
2023/03/04 02:06:56;;;;;;;0.25;0.20;;;15.90;61.70;;;;;;4992217;28;20558;-67
2023/03/04 02:09:21;;;;;;;0.20;0.20;;;15.90;61.70;;;;;;4992200;28;20026;-67
2023/03/04 02:11:48;;;;;;;0.20;0.20;;;15.90;61.70;;;;;;4991772;28;20018;-67
2023/03/04 02:14:14;;;;;;;0.30;0.25;;;15.90;61.70;;;;;;4992141;28;20104;-67
2023/03/04 02:16:39;;;;;;;0.20;0.20;;;15.90;61.60;;;;;;4992107;28;20114;-67
2023/03/04 02:19:07;;;;;;;0.10;0.10;;;15.90;61.70;;;;;;4992163;28;20105;-67
2023/03/04 02:21:33;;;;;;;0.80;0.30;;;15.90;61.60;;;;;;4991735;28;20062;-67
2023/03/04 02:24:08;;;;;;;0.35;0.30;;;15.90;61.70;;;;;;4991883;28;20062;-67
2023/03/04 02:26:38;;;;;;;0.30;0.25;;;15.90;61.70;;;;;;4992924;28;20500;-67
2023/03/04 02:29:04;;;;;;;0.38;0.32;;;15.90;61.70;;;;;;4992019;28;20058;-67
2023/03/04 02:31:37;;;;;;;0.10;0.10;;;15.90;61.60;;;;;;4992107;28;20046;-67
2023/03/04 02:34:28;;;;;;;0.30;0.20;;;15.90;61.60;;;;;;4991992;28;20022;-67
2023/03/04 02:36:54;;;;;;;0.20;0.20;;;15.90;61.60;;;;;;4991909;28;20035;-67
2023/03/04 02:39:20;;;;;;;0.47;0.25;;;15.90;61.60;;;;;;4991756;28;20092;-67
2023/03/04 02:41:46;;;;;;;0.20;0.10;;;15.90;61.60;;;;;;4992825;28;20030;-67
2023/03/04 02:44:17;;;;;;;0.32;0.20;;;15.90;61.60;;;;;;4991817;28;20018;-67
2023/03/04 02:46:43;;;;;;;0.80;0.15;;;15.90;61.60;;;;;;4991801;28;20246;-67
2023/03/04 02:49:09;;;;;;;0.10;0.10;;;15.90;61.60;;;;;;4991861;28;20026;-67
2023/03/04 02:51:34;;;;;;;0.20;0.20;;;15.90;61.60;;;;;;4991559;28;20030;-67
2023/03/04 02:54:00;;;;;;;0.20;0.20;;;15.90;61.60;;;;;;4993189;28;20109;-67
2023/03/04 02:56:26;;;;;;;0.45;0.13;;;15.90;61.70;;;;;;4992811;28;20450;-67
2023/03/04 02:58:51;;;;;;;0.30;0.20;;;15.90;61.60;;;;;;4991643;28;20587;-67
2023/03/04 03:01:17;;;;;;;0.82;0.20;;;15.90;61.60;;;;;;4991899;28;20031;-67
2023/03/04 03:03:42;;;;;;;0.15;0.13;;;15.90;61.60;;;;;;4992745;28;20035;-67
2023/03/04 03:06:08;;;;;;;0.40;0.20;;;15.90;61.50;;;;;;4991438;28;20033;-67
2023/03/04 03:08:34;;;;;;;0.20;0.10;;;15.90;61.60;;;;;;4993127;28;20043;-67
2023/03/04 03:10:59;;;;;;;0.10;0.10;;;15.90;61.60;;;;;;4996389;28;20027;-67
2023/03/04 03:13:25;;;;;;;0.50;0.32;;;15.90;61.50;;;;;;4996381;28;20033;-67
2023/03/04 03:15:51;;;;;;;0.20;0.20;;;15.90;61.60;;;;;;4996558;28;20064;-67
2023/03/04 03:18:16;;;;;;;0.10;0.10;;;15.90;61.60;;;;;;4996615;28;20052;-67
2023/03/04 03:20:42;;;;;;;0.17;0.13;;;15.90;61.50;;;;;;4996037;28;20051;-67
2023/03/04 03:23:08;;;;;;;0.17;0.17;;;15.90;61.60;;;;;;4996310;28;20050;-67
2023/03/04 03:25:33;;;;;;;0.32;0.10;;;15.90;61.60;;;;;;4996107;28;20141;-67
2023/03/04 03:27:59;;;;;;;0.32;0.20;;;15.90;61.60;;;;;;4996068;28;20022;-67
2023/03/04 03:30:24;;;;;;;0.30;0.20;;;15.90;61.70;;;;;;4996226;28;20022;-67
2023/03/04 03:32:50;;;;;;;0.20;0.20;;;15.90;61.60;;;;;;4994968;28;20023;-67
2023/03/04 03:35:16;;;;;;;0.30;0.30;;;15.90;61.50;;;;;;4994938;28;20049;-67
2023/03/04 03:37:41;;;;;;;0.47;0.20;;;15.90;61.50;;;;;;4996106;28;20508;-67
2023/03/04 03:40:08;;;;;;;0.10;0.10;;;15.90;61.60;;;;;;4978308;28;20042;-67
2023/03/04 03:42:34;;;;;;;0.20;0.20;;;15.90;61.50;;;;;;4994531;28;20034;-67
2023/03/04 03:44:59;;;;;;;0.10;0.10;;;15.90;61.60;;;;;;4995926;28;20030;-67
2023/03/04 03:47:26;;;;;;;0.10;0.10;;;15.90;61.60;;;;;;4994929;28;20101;-67
2023/03/04 03:49:51;;;;;;;0.35;0.20;;;15.90;61.50;;;;;;4994698;28;20023;-67
2023/03/04 03:52:17;;;;;;;0.20;0.20;;;15.90;61.60;;;;;;4995954;28;20031;-67
2023/03/04 03:54:43;;;;;;;0.25;0.20;;;15.90;61.50;;;;;;4995415;28;20065;-67
2023/03/04 03:57:08;;;;;;;0.20;0.20;;;15.90;61.50;;;;;;4995864;28;20028;-67
2023/03/04 03:59:34;;;;;;;0.10;0.10;;;15.90;61.50;;;;;;4995684;28;20068;-67
2023/03/04 04:02:00;;;;;;;0.55;0.20;;;15.90;61.50;;;;;;4995613;28;20106;-67
2023/03/04 04:04:25;;;;;;;0.13;0.10;;;15.90;61.50;;;;;;4994317;28;20465;-67
2023/03/04 04:06:51;;;;;;;0.30;0.22;;;15.90;61.50;;;;;;4995542;28;20077;-67
2023/03/04 04:09:17;;;;;;;0.25;0.20;;;15.90;61.50;;;;;;4995299;28;20469;-67
2023/03/04 04:11:42;;;;;;;0.22;0.22;;;15.90;61.60;;;;;;4995392;28;20124;-67
2023/03/04 04:14:12;;;;;;;0.30;0.20;;;15.90;61.50;;;;;;4994242;28;20054;-67
2023/03/04 04:16:37;;;;;;;0.30;0.20;;;15.90;61.50;;;;;;4994061;28;20089;-67
2023/03/04 04:19:03;;;;;;;0.43;0.20;;;15.90;61.50;;;;;;4995357;28;20038;-67
2023/03/04 04:21:29;;;;;;;0.20;0.20;;;15.90;61.50;;;;;;4994704;28;20084;-67
2023/03/04 04:23:54;;;;;;;0.10;0.10;;;15.80;61.50;;;;;;4995010;28;20034;-67
2023/03/04 04:26:20;;;;;;;0.50;0.10;;;15.90;62.50;;;;;;4995284;28;20058;-67
2023/03/04 04:28:46;;;;;;;0.35;0.13;;;15.90;61.50;;;;;;4995078;28;20019;-67
2023/03/04 04:31:12;;;;;;;0.10;0.10;;;15.90;61.50;;;;;;4995231;28;20064;-67
2023/03/04 04:33:38;;;;;;;0.95;0.17;;;15.90;61.50;;;;;;4994942;28;20097;-67
2023/03/04 04:36:04;;;;;;;0.10;0.10;;;15.90;61.50;;;;;;4993848;28;20037;-67
2023/03/04 04:38:30;;;;;;;0.45;0.30;;;15.80;61.40;;;;;;4993485;28;20010;-67
2023/03/04 04:40:57;;;;;;;0.90;0.30;;;15.90;61.50;;;;;;4994823;28;20027;-67
2023/03/04 04:43:23;;;;;;;0.35;0.20;;;15.90;61.50;;;;;;4993900;28;20563;-67
2023/03/04 04:45:48;;;;;;;0.98;0.25;;;15.90;61.50;;;;;;4993671;28;20066;-67
2023/03/04 04:48:14;;;;;;;0.30;0.10;;;15.90;61.50;;;;;;4994734;28;20022;-67
2023/03/04 04:50:40;;;;;;;0.20;0.20;;;15.80;61.40;;;;;;4993619;28;20058;-67
2023/03/04 04:53:05;;;;;;;0.20;0.20;;;15.80;61.40;;;;;;4994655;28;20132;-67
2023/03/04 04:55:32;;;;;;;0.40;0.17;;;15.90;61.40;;;;;;4994601;28;20038;-67
2023/03/04 04:57:58;;;;;;;0.28;0.10;;;15.80;61.40;;;;;;4994453;28;20026;-67
2023/03/04 05:00:23;;;;;;;0.32;0.20;;;15.80;61.40;;;;;;4994620;28;20485;-67
2023/03/04 05:02:49;;;;;;;0.20;0.20;;;15.80;61.30;;;;;;4994414;28;20073;-67
2023/03/04 05:05:15;;;;;;;0.95;0.20;;;15.90;61.40;;;;;;4994339;28;20026;-67
2023/03/04 05:07:40;;;;;;;0.65;0.30;;;15.80;61.40;;;;;;4994552;28;20026;-67
2023/03/04 05:10:06;;;;;;;0.77;0.10;;;15.80;61.40;;;;;;4994276;28;20022;-67
2023/03/04 05:12:32;;;;;;;0.55;0.25;;;15.80;61.50;;;;;;4993933;28;20029;-67
2023/03/04 05:14:58;;;;;;;0.20;0.10;;;15.90;61.40;;;;;;4994233;28;20041;-67
2023/03/04 05:17:23;;;;;;;0.40;0.20;;;15.90;61.50;;;;;;4993141;28;20113;-67
2023/03/04 05:19:49;;;;;;;0.10;0.10;;;15.80;61.40;;;;;;4994062;28;20109;-67
2023/03/04 05:22:14;;;;;;;0.28;0.25;;;15.80;61.40;;;;;;4993594;28;20149;-67
2023/03/04 05:24:40;;;;;;;0.55;0.20;;;15.80;61.40;;;;;;4993983;28;20037;-67
2023/03/04 05:27:06;;;;;;;0.98;0.20;;;15.80;61.40;;;;;;4993952;28;20022;-67
2023/03/04 05:29:31;;;;;;;0.65;0.10;;;15.80;61.40;;;;;;4992705;28;20031;-67
2023/03/04 05:31:57;;;;;;;0.50;0.20;;;15.80;61.40;;;;;;4993274;28;20018;-67
2023/03/04 05:34:23;;;;;;;0.10;0.10;;;15.90;61.50;;;;;;4993883;28;20402;-67
2023/03/04 05:36:48;;;;;;;0.10;0.10;;;15.90;61.40;;;;;;4992317;28;20516;-67
2023/03/04 05:39:14;;;;;;;0.10;0.10;;;15.80;61.40;;;;;;4992746;28;20504;-67
2023/03/04 05:41:39;;;;;;;0.17;0.10;;;15.80;61.40;;;;;;4992703;28;20484;-67
2023/03/04 05:44:05;;;;;;;0.20;0.10;;;15.80;61.30;;;;;;4992375;28;20035;-67
2023/03/04 05:46:31;;;;;;;0.20;0.20;;;15.80;61.40;;;;;;4992656;28;20027;-66
2023/03/04 05:48:56;;;;;;;0.10;0.10;;;15.80;61.30;;;;;;4993765;28;20022;-67
2023/03/04 05:51:22;;;;;;;0.00;0.00;;;15.80;61.40;;;;;;4992329;28;20015;-67
2023/03/04 05:53:48;;;;;;;0.40;0.10;;;15.80;61.30;;;;;;4976243;28;20023;-67
2023/03/04 05:56:15;;;;;;;0.15;0.15;;;15.80;61.30;;;;;;4992303;28;20023;-67
2023/03/04 05:58:41;;;;;;;0.45;0.20;;;15.80;61.40;;;;;;4992311;28;20019;-67
2023/03/04 06:01:07;;;;;;;0.10;0.10;;;15.80;61.40;;;;;;4993532;28;20499;-67
2023/03/04 06:03:32;;;;;;;0.10;0.10;;;15.80;61.40;;;;;;4992030;28;20539;-67
2023/03/04 06:05:58;;;;;;;0.30;0.13;;;15.80;61.40;;;;;;4993084;28;20025;-67
2023/03/04 06:08:24;;;;;;;0.20;0.20;;;15.80;61.30;;;;;;4992228;28;20128;-67
2023/03/04 06:10:51;;;;;;;0.28;0.20;;;15.80;61.40;;;;;;4975971;28;20023;-67
2023/03/04 06:13:17;;;;;;;0.03;0.00;;;15.80;61.40;;;;;;4992095;28;20046;-67
2023/03/04 06:15:43;;;;;;;0.10;0.10;;;15.80;61.30;;;;;;4992171;28;20199;-67
2023/03/04 06:18:08;;;;;;;0.20;0.10;;;15.80;61.40;;;;;;4992014;28;20037;-67
2023/03/04 06:20:34;;;;;;;0.20;0.20;;;15.80;62.40;;;;;;4991740;28;20552;-67
2023/03/04 06:23:00;;;;;;;0.73;0.28;;;15.80;61.40;;;;;;4992942;28;20047;-67
2023/03/04 06:25:25;;;;;;;0.10;0.10;;;15.80;61.40;;;;;;4993031;28;20109;-67
2023/03/04 06:27:51;;;;;;;1.10;0.30;;;15.80;61.40;;;;;;4993094;28;20149;-67
2023/03/04 06:30:17;;;;;;;0.40;0.20;;;15.80;61.40;;;;;;4991985;28;20030;-67
2023/03/04 06:32:43;;;;;;;0.25;0.10;;;15.80;61.30;;;;;;4991840;28;20097;-67
2023/03/04 06:35:10;;;;;;;0.10;0.10;;;15.80;61.30;;;;;;4991790;28;20166;-67
2023/03/04 06:37:36;;;;;;;0.20;0.20;;;15.90;61.40;;;;;;4993163;28;20046;-67
2023/03/04 06:40:02;;;;;;;0.45;0.22;;;15.80;61.30;;;;;;4992944;28;20045;-67
2023/03/04 06:42:28;;;;;;;0.22;0.10;;;15.80;61.30;;;;;;4992109;28;20392;-67
2023/03/04 06:44:53;;;;;;;0.43;0.20;;;15.80;61.30;;;;;;4995843;28;20031;-67
2023/03/04 06:47:19;;;;;;;0.43;0.32;;;15.80;61.30;;;;;;4996760;28;20036;-67
2023/03/04 06:49:45;;;;;;;0.20;0.10;;;15.80;61.30;;;;;;4997115;28;20030;-67
2023/03/04 06:52:11;;;;;;;0.20;0.17;;;15.80;61.30;;;;;;4996861;28;20037;-67
2023/03/04 06:54:38;;;;;;;0.28;0.17;;;15.80;61.30;;;;;;4996913;28;20105;-67
2023/03/04 06:57:03;;;;;;;0.60;0.20;;;15.80;61.30;;;;;;4996940;28;20078;-67
2023/03/04 06:59:29;;;;;;;0.52;0.13;;;15.80;61.30;;;;;;4996739;28;20500;-67
2023/03/04 07:01:54;;;;;;;0.20;0.00;;;15.80;61.40;;;;;;4996358;28;20058;-67
2023/03/04 07:04:22;;;;;;;0.10;0.10;;;15.80;61.40;;;;;;4996722;28;20484;-67
2023/03/04 07:06:48;;;;;;;0.10;0.10;;;15.80;61.30;;;;;;4995444;28;20029;-67
2023/03/04 07:09:13;;;;;;;0.13;0.13;;;15.80;62.30;;;;;;4995516;28;20026;-67
2023/03/04 07:11:39;;;;;;;0.20;0.13;;;15.80;61.30;;;;;;4996396;28;20033;-67
2023/03/04 07:14:05;;;;;;;0.10;0.10;;;15.80;61.30;;;;;;4996533;28;20093;-67
2023/03/04 07:16:30;;;;;;;0.25;0.20;;;15.80;61.30;;;;;;4995269;28;20041;-67
2023/03/04 07:18:56;;;;;;;0.20;0.20;;;15.80;61.30;;;;;;4996427;28;20030;-67
2023/03/04 07:21:21;;;;;;;0.17;0.10;;;15.80;61.30;;;;;;4995994;28;20033;-67
2023/03/04 07:23:47;;;;;;;0.30;0.20;;;15.80;61.30;;;;;;4995218;28;20033;-67
2023/03/04 07:26:13;;;;;;;0.60;0.10;;;15.80;61.30;;;;;;4995056;28;20029;-67
2023/03/04 07:28:39;;;;;;;0.15;0.15;;;15.80;61.30;;;;;;4995167;28;20153;-67
2023/03/04 07:31:28;;;;;;;0.40;0.20;;;15.80;61.30;;;;;;4994895;28;20087;-67
2023/03/04 07:33:59;;;;;;;0.10;0.10;;;15.90;61.50;;;;;;5027743;28;20033;-67
2023/03/04 07:36:25;;;;;;;0.20;0.10;;;15.80;61.40;;;;;;4996272;28;20053;-67
2023/03/04 07:38:50;;;;;;;0.45;0.17;;;15.80;61.30;;;;;;4996013;28;20488;-67
2023/03/04 07:41:16;;;;;;;0.30;0.20;;;15.80;61.30;;;;;;4995075;28;20057;-67
2023/03/04 07:43:43;;;;;;;0.73;0.25;;;15.80;61.30;;;;;;4978370;28;20429;-67
2023/03/04 07:46:08;;;;;;;0.20;0.20;;;15.80;61.40;;;;;;4978600;28;20110;-67
2023/03/04 07:48:34;;;;;;;0.50;0.28;;;15.80;61.30;;;;;;4994707;28;20046;-67
2023/03/04 07:51:07;;;;;;;0.20;0.20;;;15.80;61.40;;;;;;4994798;28;20031;-67
2023/03/04 07:53:33;;;;;;;0.10;0.10;;;15.90;61.40;;;;;;4995865;28;20031;-67
2023/03/04 07:55:58;;;;;;;0.50;0.20;;;15.80;61.40;;;;;;4993934;28;20481;-67
2023/03/04 07:58:24;;;;;;;0.10;0.10;;;15.80;61.40;;;;;;4995670;28;20489;-67
2023/03/04 08:00:50;;;;;;;0.10;0.10;;;15.80;61.30;;;;;;4995398;28;20038;-67
2023/03/04 08:03:15;;;;;;;0.15;0.10;;;15.80;61.30;;;;;;4995669;28;20026;-67
2023/03/04 08:05:41;;;;;;;0.45;0.10;;;15.80;61.30;;;;;;4995492;28;20113;-67
2023/03/04 08:08:07;;;;;;;0.10;0.10;;;15.80;61.30;;;;;;4994352;28;20049;-67
2023/03/04 08:10:32;;;;;;;0.10;0.10;;;15.80;61.30;;;;;;4994480;28;20065;-67
2023/03/04 08:12:58;;;;;;;0.15;0.15;;;15.80;61.30;;;;;;4995357;28;20030;-67
2023/03/04 08:15:26;;;;;;;0.35;0.10;;;15.80;61.40;;;;;;4995359;28;20058;-67
2023/03/04 08:17:52;;;;;;;0.88;0.20;;;15.80;61.40;;;;;;4995427;28;20050;-67
2023/03/04 08:20:17;;;;;;;0.10;0.10;;;15.80;61.30;;;;;;4993991;28;20037;-67
2023/03/04 08:22:43;;;;;;;0.17;0.13;;;15.80;61.30;;;;;;4995127;28;20548;-67
2023/03/04 08:25:09;;;;;;;0.13;0.10;;;15.80;61.30;;;;;;4995771;28;20487;-67
2023/03/04 08:27:36;;;;;;;0.30;0.20;;;15.80;61.30;;;;;;4991467;28;20026;-67
2023/03/04 08:30:05;;;;;;;0.10;0.10;;;15.80;61.30;;;;;;4983930;28;20097;-67
2023/03/04 08:32:31;;;;;;;0.88;0.20;;;15.80;61.40;;;;;;4986569;28;20015;-67
2023/03/04 08:34:56;;;;;;;0.30;0.10;;;15.80;61.30;;;;;;4975672;28;20504;-67
2023/03/04 08:37:22;;;;;;;0.20;0.10;;;15.80;61.30;;;;;;4987584;28;20034;-67
2023/03/04 08:39:48;;;;;;;0.40;0.30;;;15.80;61.30;;;;;;4995025;28;20121;-67
2023/03/04 08:42:14;;;;;;;0.30;0.20;;;15.80;61.30;;;;;;4993478;28;20500;-67
2023/03/04 08:44:40;;;;;;;0.32;0.20;;;15.80;61.30;;;;;;4991204;28;20055;-67
2023/03/04 08:47:09;;;;;;;0.98;0.30;;;15.80;61.40;;;;;;4975429;28;20049;-67
2023/03/04 08:49:34;;;;;;;0.20;0.20;;;15.80;61.40;;;;;;4975341;28;20082;-67
2023/03/04 08:52:00;;;;;;;0.20;0.20;;;15.80;61.40;;;;;;4975190;28;20450;-67
2023/03/04 08:54:26;;;;;;;0.15;0.15;;;15.80;61.40;;;;;;4975378;28;20027;-67
2023/03/04 08:56:51;;;;;;;0.20;0.20;;;15.80;61.40;;;;;;4974113;28;20035;-67
2023/03/04 08:59:17;;;;;;;0.20;0.20;;;15.80;61.40;;;;;;4974827;28;20085;-67
2023/03/04 09:01:42;;;;;;;0.20;0.20;;;15.80;61.40;;;;;;4978327;28;20018;-67
2023/03/04 09:04:08;;;;;;;0.45;0.25;;;15.80;61.30;;;;;;4994199;28;20031;-67
2023/03/04 09:06:34;;;;;;;0.50;0.43;;;15.80;61.40;;;;;;4992355;28;20034;-67
2023/03/04 09:08:59;;;;;;;0.85;0.20;;;15.80;61.40;;;;;;4994480;28;20057;-67
2023/03/04 09:11:25;;;;;;;0.20;0.20;;;15.80;61.40;;;;;;4994202;28;20061;-67
2023/03/04 09:13:51;;;;;;;0.17;0.17;;;15.80;61.40;;;;;;4974653;28;20061;-67
2023/03/04 09:16:16;;;;;;;0.20;0.20;;;15.80;61.30;;;;;;4989926;28;20023;-67
2023/03/04 09:18:42;;;;;;;0.50;0.38;;;15.80;61.30;;;;;;4973467;28;20023;-67
2023/03/04 09:21:08;;;;;;;0.30;0.30;;;15.80;61.40;;;;;;4989822;28;20485;-67
2023/03/04 09:23:34;;;;;;;0.38;0.38;;;15.80;61.40;;;;;;4974522;28;20062;-67
2023/03/04 09:25:59;;;;;;;0.28;0.28;;;15.80;61.30;;;;;;4974678;28;20062;-67
2023/03/04 09:28:25;;;;;;;0.22;0.20;;;15.80;61.40;;;;;;4989285;28;20019;-67
2023/03/04 09:30:51;;;;;;;0.85;0.40;;;15.80;61.30;;;;;;4974524;28;20137;-67
2023/03/04 09:33:16;;;;;;;0.35;0.35;;;15.80;61.80;;;;;;4974588;28;20023;-66
2023/03/04 09:35:42;;;;;;;0.35;0.30;;;15.80;61.40;;;;;;4991609;28;20058;-67
2023/03/04 09:38:08;;;;;;;0.35;0.30;;;15.80;61.30;;;;;;4992739;28;20026;-67
2023/03/04 09:40:40;;;;;;;0.30;0.30;;;15.80;61.30;;;;;;4992732;28;20018;-67
2023/03/04 09:43:09;;;;;;;0.30;0.30;;;15.80;61.30;;;;;;4992462;28;20050;-67
2023/03/04 09:45:44;;;;;;;0.30;0.30;;;15.90;61.40;;;;;;4992414;28;20030;-67
2023/03/04 09:48:12;;;;;;;0.38;0.38;;;15.80;61.30;;;;;;4992518;28;20046;-67
2023/03/04 09:50:40;;;;;;;0.75;0.45;;;15.80;61.30;;;;;;4992592;28;20042;-67
2023/03/04 09:53:06;;;;;;;0.40;0.40;;;15.80;61.40;;;;;;4992519;28;20026;-67
2023/03/04 09:55:32;;;;;;;0.50;0.45;;;15.80;61.40;;;;;;4992351;28;20390;-67
2023/03/04 09:58:06;;;;;;;0.30;0.30;;;15.80;61.40;;;;;;4993385;28;20026;-67
2023/03/04 10:00:40;;;;;;;0.68;0.50;;;15.80;61.30;;;;;;4993522;28;20093;-67
2023/03/04 10:03:14;;;;;;;0.30;0.30;;;15.80;61.40;;;;;;4992354;28;20023;-67
2023/03/04 10:05:41;;;;;;;0.57;0.50;;;15.80;61.30;;;;;;4992349;28;20033;-67
2023/03/04 10:08:25;;;;;;;0.30;0.30;;;15.80;61.40;;;;;;4992048;28;20026;-67
2023/03/04 10:10:51;;;;;;;0.73;0.60;;;15.80;61.40;;;;;;4992091;28;20080;-67
2023/03/04 10:13:25;;;;;;;0.43;0.43;;;15.80;61.40;;;;;;4991939;28;20034;-67
2023/03/04 10:15:50;;;;;;;0.60;0.32;;;15.80;61.40;;;;;;4992272;28;20101;-67
2023/03/04 10:18:19;;;;;;;0.90;0.68;;;15.80;61.50;;;;;;4991821;28;20469;-67
2023/03/04 10:20:55;;;;;;;0.73;0.50;;;15.90;61.50;;;;;;4993022;28;20105;-67
2023/03/04 10:23:23;;;;;;;0.40;0.40;;;15.80;61.40;;;;;;4991848;28;20050;-67
2023/03/04 10:25:52;;;;;;;0.40;0.30;;;15.80;61.40;;;;;;4991913;28;20073;-67
2023/03/04 10:28:39;;;;;;;0.98;0.40;;;15.80;61.40;;;;;;4991994;28;20053;-67
2023/03/04 10:31:07;;;;;;;0.38;0.38;;;15.80;61.40;;;;;;4991905;28;20090;-67
2023/03/04 10:33:35;;;;;;;0.77;0.63;;;15.80;61.40;;;;;;4993061;28;20053;-67
2023/03/04 10:36:04;;;;;;;0.50;0.50;;;15.80;61.50;;;;;;4992795;28;20028;-67
2023/03/04 10:38:38;;;;;;;0.75;0.52;;;15.80;61.40;;;;;;4993021;28;20084;-67
2023/03/04 10:41:18;;;;;;;1.15;0.40;;;15.90;61.50;;;;;;4991780;28;20029;-67
2023/03/04 10:43:45;;;;;;;0.43;0.40;;;15.90;61.40;;;;;;4991863;28;20117;-67
2023/03/04 10:46:11;;;;;;;0.55;0.55;;;15.80;61.40;;;;;;4975681;28;20019;-67
2023/03/04 10:48:37;;;;;;;0.40;0.40;;;15.90;61.50;;;;;;4991884;28;20019;-67
2023/03/04 10:51:35;;;;;;;0.60;0.57;;;15.90;61.50;;;;;;4991778;28;20548;-67
2023/03/04 10:54:09;;;;;;;0.63;0.55;;;15.90;61.50;;;;;;5023960;28;20042;-67
2023/03/04 10:56:37;;;;;;;0.68;0.55;;;15.90;61.50;;;;;;4991775;28;20485;-67
2023/03/04 10:59:31;;;;;;;0.77;0.70;;;15.90;61.50;;;;;;4991551;28;20022;-67
2023/03/04 11:02:01;;;;;;;0.73;0.60;;;15.90;61.50;;;;;;4992848;28;20095;-67
2023/03/04 11:04:27;;;;;;;0.85;0.80;;;15.90;61.50;;;;;;4992804;28;20027;-67
2023/03/04 11:06:53;;;;;;;0.60;0.60;;;15.90;61.50;;;;;;4991505;28;20031;-67
2023/03/04 11:09:29;;;;;;;0.60;0.50;;;15.90;61.50;;;;;;4991425;28;20492;-67
2023/03/04 11:11:55;;;;;;;0.60;0.60;;;15.90;61.50;;;;;;4991230;28;20077;-67
2023/03/04 11:14:22;;;;;;;0.40;0.40;;;15.90;61.50;;;;;;4992834;28;20023;-67
2023/03/04 11:16:53;;;;;;;0.50;0.50;;;15.90;61.50;;;;;;4991586;28;20022;-67
2023/03/04 11:19:19;;;;;;;0.50;0.50;;;15.90;61.50;;;;;;4991499;28;20022;-67
2023/03/04 11:21:44;;;;;;;0.52;0.52;;;15.90;61.50;;;;;;4991413;28;20061;-67
2023/03/04 11:24:32;;;;;;;0.60;0.60;;;15.90;61.50;;;;;;4974919;28;20037;-67
2023/03/04 11:27:05;;;;;;;0.50;0.50;;;15.90;61.50;;;;;;4978284;28;20015;-67
2023/03/04 11:29:39;;;;;;;;;;;15.90;61.50;;;;;;4991950;28;20065;-67
2023/03/04 11:32:24;;;;;;;0.50;0.50;;;15.90;61.50;;;;;;4995069;28;19932;-66
2023/03/04 11:35:27;;;;;;;1.15;0.60;;;15.90;61.50;;;;;;4996007;28;20011;-67
2023/03/04 11:37:59;;;;;;;1.10;0.73;;;15.90;61.50;;;;;;4976551;28;20034;-67
2023/03/04 11:40:46;;;;;;;0.50;0.50;;;15.90;61.50;;;;;;4991657;28;20037;-67
2023/03/04 11:43:19;;;;;;;0.60;0.50;;;15.90;61.50;;;;;;4991605;28;20515;-67
2023/03/04 11:46:22;;;;;;;0.60;0.60;;;15.90;61.50;;;;;;4976473;28;20023;-67
2023/03/04 11:49:15;;;;;;;0.98;0.52;;;15.90;61.50;;;;;;4976326;28;20026;-67
2023/03/04 11:51:52;;;;;;;0.63;0.63;;;15.90;61.50;;;;;;4976304;28;20122;-67
2023/03/04 11:54:45;;;;;;;0.70;0.55;;;15.90;61.50;;;;;;4976419;28;20031;-67
2023/03/04 11:57:48;;;;;;;0.60;0.60;;;15.90;61.50;;;;;;4989371;28;20566;-66
2023/03/04 12:00:58;;;;;;;1.30;0.57;;;15.90;61.50;;;;;;4976274;28;20065;-67
2023/03/04 12:03:33;;;;;;;0.60;0.57;;;15.90;61.50;;;;;;4974099;28;20494;-67
2023/03/04 12:06:36;;;;;;;1.20;0.57;;;15.90;61.60;;;;;;4973973;28;20464;-67
2023/03/04 12:09:13;;;;;;;0.95;0.50;;;15.90;61.50;;;;;;4974151;28;20101;-67
2023/03/04 12:11:55;;;;;;;0.50;0.50;;;15.90;61.50;;;;;;4975599;28;20109;-67
2023/03/04 12:14:30;;;;;;;0.50;0.50;;;15.90;61.50;;;;;;4977135;28;20097;-67
2023/03/04 12:17:27;;;;;;;0.47;0.47;;;15.90;61.50;;;;;;4993469;28;20049;-67
2023/03/04 12:20:26;;;;;;;0.75;0.40;;;15.90;61.50;;;;;;4978365;28;20078;-67
2023/03/04 12:23:12;;;;;;;0.95;0.55;;;15.90;61.50;;;;;;4992613;28;20253;-67
2023/03/04 12:26:02;;;;;;;0.57;0.43;;;15.90;61.50;;;;;;4976918;28;20042;-67
2023/03/04 12:28:52;;;;;;;0.40;0.40;;;15.90;61.60;;;;;;4977069;28;20505;-67
2023/03/04 12:31:36;;;;;;;0.40;0.40;;;15.90;61.60;;;;;;4978767;28;20030;-67
2023/03/04 12:34:29;;;;;;;0.75;0.50;;;15.90;61.60;;;;;;4976795;28;20037;-66
2023/03/04 12:36:55;;;;;;;;;;;15.90;61.60;;;;;;4950849;28;20070;-67
2023/03/04 12:39:27;;;;;;;0.40;0.40;;;15.90;61.60;;;;;;4966973;28;20273;-67
2023/03/04 12:42:29;;;;;;;0.67;0.60;;;15.90;61.60;;;;;;4975518;28;20073;-67
2023/03/04 12:45:17;;;;;;;0.60;0.43;;;15.90;61.60;;;;;;4975330;28;20393;-67
2023/03/04 12:47:58;;;;;;;0.30;0.30;;;15.90;61.60;;;;;;4974247;28;20258;-67
2023/03/04 12:50:58;;;;;;;0.50;0.50;;;15.90;61.60;;;;;;4975230;28;20026;-67
2023/03/04 12:53:34;;;;;;;0.55;0.35;;;15.90;61.60;;;;;;4975248;28;20051;-67
2023/03/04 12:56:00;;;;;;;0.47;0.47;;;15.90;61.60;;;;;;4974062;28;20023;-67
2023/03/04 12:58:27;;;;;;;0.63;0.30;;;15.90;61.60;;;;;;4973966;28;20485;-67